createdAt,value
2023-05-09T00:00:25.723Z,5.95
2023-05-09T00:02:52.184Z,6.95
2023-05-09T00:05:18.525Z,6.97
2023-05-09T00:07:44.900Z,6.47
2023-05-09T00:10:11.368Z,5.85
2023-05-09T00:12:37.669Z,6.22
2023-05-09T00:15:04.019Z,6.13
2023-05-09T00:17:30.453Z,6.85
2023-05-09T00:19:56.762Z,6.53
2023-05-09T00:22:23.112Z,6.45
2023-05-09T00:24:49.447Z,6.72
2023-05-09T00:27:15.784Z,7.35
2023-05-09T00:29:42.176Z,7.85
2023-05-09T00:32:08.605Z,8.52
2023-05-09T00:34:35.031Z,7.20
2023-05-09T00:37:01.422Z,6.28
2023-05-09T00:39:27.765Z,6.93
2023-05-09T00:41:54.076Z,6.45
2023-05-09T00:44:20.479Z,6.80
2023-05-09T00:46:46.812Z,6.45
2023-05-09T00:49:13.211Z,6.53
2023-05-09T00:51:39.551Z,6.47
2023-05-09T00:54:08.400Z,6.65
2023-05-09T00:56:35.474Z,6.72
2023-05-09T00:59:01.859Z,6.85
2023-05-09T01:01:28.449Z,7.10
2023-05-09T01:03:54.827Z,6.63
2023-05-09T01:06:21.288Z,7.13
2023-05-09T01:08:47.623Z,6.38
2023-05-09T01:11:14.023Z,7.82
2023-05-09T01:13:40.645Z,6.50
2023-05-09T01:16:06.970Z,7.13
2023-05-09T01:18:33.306Z,6.85
2023-05-09T01:20:59.695Z,6.75
2023-05-09T01:23:26.023Z,7.15
2023-05-09T01:25:52.335Z,5.55
2023-05-09T01:28:18.773Z,6.25
2023-05-09T01:30:45.072Z,6.80
2023-05-09T01:33:11.410Z,6.70
2023-05-09T01:35:37.891Z,7.57
2023-05-09T01:38:04.229Z,7.00
2023-05-09T01:40:30.564Z,6.32
2023-05-09T01:42:56.923Z,7.00
2023-05-09T01:45:23.732Z,7.32
2023-05-09T01:47:50.184Z,6.85
2023-05-09T01:50:16.924Z,6.68
2023-05-09T01:52:43.356Z,7.40
2023-05-09T01:55:09.676Z,8.07
2023-05-09T01:57:36.061Z,7.55
2023-05-09T02:00:02.396Z,8.38
2023-05-09T02:02:39.272Z,6.40
2023-05-09T02:05:05.814Z,7.82
2023-05-09T02:07:32.136Z,8.38
2023-05-09T02:09:58.512Z,6.68
2023-05-09T02:12:24.863Z,7.38
2023-05-09T02:14:51.196Z,6.53
2023-05-09T02:17:17.583Z,6.85
2023-05-09T02:19:44.005Z,6.47
2023-05-09T02:22:10.326Z,9.38
2023-05-09T02:24:36.702Z,7.38
2023-05-09T02:27:03.048Z,6.80
2023-05-09T02:29:29.358Z,7.53
2023-05-09T02:31:55.748Z,7.15
2023-05-09T02:34:22.430Z,6.72
2023-05-09T02:36:48.775Z,8.30
2023-05-09T02:39:15.156Z,8.07
2023-05-09T02:41:41.474Z,8.05
2023-05-09T02:44:07.806Z,6.57
2023-05-09T02:46:34.353Z,7.25
2023-05-09T02:49:00.762Z,7.93
2023-05-09T02:51:27.873Z,7.50
2023-05-09T02:53:54.249Z,7.65
2023-05-09T02:56:20.611Z,7.45
2023-05-09T02:58:46.936Z,8.57
2023-05-09T03:01:13.428Z,7.30
2023-05-09T03:03:40.008Z,7.18
2023-05-09T03:06:06.629Z,7.50
2023-05-09T03:08:32.977Z,7.78
2023-05-09T03:10:59.348Z,7.55
2023-05-09T03:13:25.939Z,6.72
2023-05-09T03:15:52.468Z,7.47
2023-05-09T03:18:18.837Z,7.05
2023-05-09T03:20:45.268Z,8.57
2023-05-09T03:23:11.951Z,9.50
2023-05-09T03:25:38.367Z,7.40
2023-05-09T03:28:05.698Z,7.25
2023-05-09T03:30:32.107Z,7.05
2023-05-09T03:32:59.042Z,6.95
2023-05-09T03:35:25.530Z,6.70
2023-05-09T03:37:54.193Z,7.78
2023-05-09T03:40:20.572Z,12.10
2023-05-09T03:42:53.302Z,14.73
2023-05-09T03:45:19.899Z,13.60
2023-05-09T03:47:47.169Z,11.32
2023-05-09T03:50:13.958Z,10.18
2023-05-09T03:52:40.519Z,13.38
2023-05-09T03:55:06.958Z,9.75
2023-05-09T03:57:35.129Z,10.55
2023-05-09T04:00:01.619Z,13.38
2023-05-09T04:02:28.162Z,14.75
2023-05-09T04:04:54.725Z,14.82
2023-05-09T04:07:22.745Z,11.13
2023-05-09T04:09:49.217Z,12.85
2023-05-09T04:12:15.853Z,12.48
2023-05-09T04:14:42.345Z,17.65
2023-05-09T04:17:08.979Z,13.38
2023-05-09T04:19:35.407Z,15.80
2023-05-09T04:22:02.028Z,14.70
2023-05-09T04:24:28.638Z,16.95
2023-05-09T04:26:55.028Z,13.77
2023-05-09T04:29:23.874Z,12.52
2023-05-09T04:31:53.705Z,19.00
2023-05-09T04:34:23.560Z,16.10
2023-05-09T04:36:50.214Z,39.50
2023-05-09T04:39:16.786Z,40.45
2023-05-09T04:41:52.692Z,23.45
2023-05-09T04:44:19.425Z,19.65
2023-05-09T04:46:46.138Z,19.38
2023-05-09T04:49:12.670Z,19.00
2023-05-09T04:51:39.107Z,19.95
2023-05-09T04:54:05.603Z,15.95
2023-05-09T04:56:35.612Z,18.98
2023-05-09T04:59:02.232Z,19.65
2023-05-09T05:01:29.319Z,15.15
2023-05-09T05:03:56.380Z,16.17
2023-05-09T05:06:22.845Z,15.25
2023-05-09T05:08:49.242Z,17.70
2023-05-09T05:11:15.660Z,13.32
2023-05-09T05:13:42.156Z,13.13
2023-05-09T05:16:10.366Z,12.07
2023-05-09T05:18:36.785Z,14.20
2023-05-09T05:21:03.804Z,17.10
2023-05-09T05:23:30.136Z,11.30
2023-05-09T05:25:56.515Z,14.63
2023-05-09T05:28:23.114Z,11.73
2023-05-09T05:30:49.484Z,15.57
2023-05-09T05:33:15.868Z,12.57
2023-05-09T05:35:42.951Z,15.40
2023-05-09T05:38:09.967Z,10.80
2023-05-09T05:40:36.820Z,14.85
2023-05-09T05:43:05.197Z,15.05
2023-05-09T05:45:33.255Z,13.18
2023-05-09T05:48:02.734Z,12.20
2023-05-09T05:50:30.775Z,15.65
2023-05-09T05:52:57.232Z,9.98
2023-05-09T05:55:23.655Z,38.58
2023-05-09T05:57:50.259Z,12.60
2023-05-09T06:00:16.612Z,10.60
2023-05-09T06:02:47.979Z,10.68
2023-05-09T06:07:49.915Z,10.90
2023-05-09T06:10:16.323Z,10.65
2023-05-09T06:12:43.984Z,12.80
2023-05-09T06:15:10.489Z,9.50
2023-05-09T06:17:40.696Z,12.25
2023-05-09T06:20:07.171Z,49.63
2023-05-09T06:22:33.631Z,24.85
2023-05-09T06:25:00.022Z,11.48
2023-05-09T06:27:26.455Z,13.65
2023-05-09T06:29:52.937Z,9.77
2023-05-09T06:32:19.313Z,15.02
2023-05-09T06:34:45.725Z,15.07
2023-05-09T06:37:12.168Z,27.25
2023-05-09T06:39:38.563Z,19.23
2023-05-09T06:42:04.943Z,13.68
2023-05-09T06:44:33.607Z,16.17
2023-05-09T06:46:59.961Z,56.88
2023-05-09T06:49:26.325Z,47.28
2023-05-09T06:51:52.712Z,44.13
2023-05-09T06:54:19.108Z,39.42
2023-05-09T06:56:45.472Z,40.65
2023-05-09T06:59:11.879Z,33.38
2023-05-09T07:01:38.272Z,36.15
2023-05-09T07:04:04.705Z,39.08
2023-05-09T07:06:31.113Z,34.22
2023-05-09T07:08:57.474Z,34.72
2023-05-09T07:11:23.862Z,27.52
2023-05-09T07:13:50.302Z,43.25
2023-05-09T07:16:16.706Z,34.65
2023-05-09T07:18:43.066Z,53.90
2023-05-09T07:21:09.485Z,49.17
2023-05-09T07:23:35.838Z,41.25
2023-05-09T07:26:02.226Z,30.20
2023-05-09T07:28:28.627Z,30.40
2023-05-09T07:30:54.978Z,57.08
2023-05-09T07:33:21.301Z,31.80
2023-05-09T07:35:47.723Z,26.58
2023-05-09T07:38:14.061Z,27.13
2023-05-09T07:40:40.398Z,27.63
2023-05-09T07:43:06.946Z,108.10
2023-05-09T07:45:33.368Z,27.50
2023-05-09T07:47:59.925Z,28.02
2023-05-09T07:50:26.430Z,23.48
2023-05-09T07:52:52.858Z,24.73
2023-05-09T07:55:21.689Z,21.33
2023-05-09T07:57:48.093Z,18.55
2023-05-09T08:00:14.479Z,21.88
2023-05-09T08:02:41.341Z,22.92
2023-05-09T08:05:07.804Z,20.88
2023-05-09T08:07:34.192Z,20.55
2023-05-09T08:10:00.556Z,20.13
2023-05-09T08:12:26.966Z,15.60
2023-05-09T08:14:53.383Z,18.65
2023-05-09T08:17:19.829Z,13.45
2023-05-09T08:19:46.334Z,16.33
2023-05-09T08:22:12.714Z,19.40
2023-05-09T08:24:39.154Z,24.83
2023-05-09T08:27:05.555Z,19.42
2023-05-09T08:29:31.915Z,15.98
2023-05-09T08:31:58.348Z,12.75
2023-05-09T08:34:24.774Z,14.68
2023-05-09T08:36:51.222Z,12.15
2023-05-09T08:39:17.616Z,13.73
2023-05-09T08:41:44.009Z,12.27
2023-05-09T08:44:10.577Z,11.98
2023-05-09T08:46:36.965Z,17.35
2023-05-09T08:49:03.434Z,24.83
2023-05-09T08:51:29.832Z,11.15
2023-05-09T08:53:56.244Z,12.98
2023-05-09T08:56:22.655Z,20.75
2023-05-09T08:58:49.068Z,24.77
2023-05-09T09:01:15.490Z,37.25
2023-05-09T09:03:42.005Z,62.13
2023-05-09T09:06:08.382Z,40.10
2023-05-09T09:08:34.790Z,26.52
2023-05-09T09:11:01.233Z,17.98
2023-05-09T09:13:27.748Z,18.00
2023-05-09T09:15:54.221Z,15.13
2023-05-09T09:18:20.771Z,14.93
2023-05-09T09:20:47.252Z,16.17
2023-05-09T09:23:13.681Z,15.15
2023-05-09T09:25:40.072Z,18.85
2023-05-09T09:28:06.531Z,15.80
2023-05-09T09:30:32.964Z,13.05
2023-05-09T09:32:59.482Z,17.15
2023-05-09T09:35:25.911Z,17.20
2023-05-09T09:37:52.306Z,25.30
2023-05-09T09:40:18.717Z,22.95
2023-05-09T09:42:45.099Z,16.30
2023-05-09T09:45:11.502Z,17.63
2023-05-09T09:47:38.003Z,16.88
2023-05-09T09:50:04.401Z,14.68
2023-05-09T09:52:30.775Z,14.75
2023-05-09T09:54:57.212Z,11.60
2023-05-09T09:57:23.621Z,12.75
2023-05-09T09:59:50.017Z,11.98
2023-05-09T10:02:16.439Z,49.97
2023-05-09T10:04:42.818Z,35.90
2023-05-09T10:07:10.580Z,28.35
2023-05-09T10:09:38.218Z,26.15
2023-05-09T10:12:04.787Z,29.35
2023-05-09T10:14:32.445Z,19.88
2023-05-09T10:17:00.129Z,17.92
2023-05-09T10:19:26.605Z,20.92
2023-05-09T10:21:52.953Z,23.55
2023-05-09T10:24:19.332Z,17.67
2023-05-09T10:26:45.740Z,62.97
2023-05-09T10:29:12.120Z,31.40
2023-05-09T10:31:38.596Z,44.42
2023-05-09T10:34:05.246Z,29.58
2023-05-09T10:36:31.862Z,31.15
2023-05-09T10:38:58.336Z,30.42
2023-05-09T10:41:24.664Z,29.13
2023-05-09T10:43:51.019Z,26.77
2023-05-09T10:46:17.510Z,14.98
2023-05-09T10:48:44.002Z,46.58
2023-05-09T10:51:10.601Z,34.50
2023-05-09T10:53:37.035Z,35.15
2023-05-09T10:56:03.362Z,18.45
2023-05-09T10:58:29.728Z,21.30
2023-05-09T11:00:57.263Z,25.02
2023-05-09T11:03:23.986Z,17.65
2023-05-09T11:05:50.523Z,29.75
2023-05-09T11:08:16.936Z,25.60
2023-05-09T11:10:43.320Z,43.88
2023-05-09T11:13:09.725Z,28.73
2023-05-09T11:15:36.233Z,33.03
2023-05-09T11:18:02.668Z,35.78
2023-05-09T11:20:29.060Z,27.27
2023-05-09T11:22:55.468Z,16.25
2023-05-09T11:25:21.835Z,43.40
2023-05-09T11:27:48.188Z,24.63
2023-05-09T11:30:14.790Z,21.38
2023-05-09T11:32:41.505Z,33.58
2023-05-09T11:35:07.883Z,23.73
2023-05-09T11:37:34.371Z,26.98
2023-05-09T11:40:00.786Z,27.27
2023-05-09T11:42:27.133Z,58.50
2023-05-09T11:44:53.623Z,31.30
2023-05-09T11:47:19.984Z,22.70
2023-05-09T11:49:46.318Z,14.10
2023-05-09T11:52:12.795Z,17.77
2023-05-09T11:54:39.156Z,23.15
2023-05-09T11:57:05.535Z,16.02
2023-05-09T11:59:32.055Z,10.68
2023-05-09T12:01:58.444Z,21.65
2023-05-09T12:04:24.898Z,10.38
2023-05-09T12:06:51.368Z,10.77
2023-05-09T12:09:17.725Z,8.95
2023-05-09T12:11:44.084Z,6.03
2023-05-09T12:14:13.533Z,10.60
2023-05-09T12:16:40.068Z,9.40
2023-05-09T12:19:06.468Z,7.47
2023-05-09T12:21:32.885Z,8.40
2023-05-09T12:23:59.271Z,9.13
2023-05-09T12:26:25.577Z,14.77
2023-05-09T12:28:51.965Z,15.00
2023-05-09T12:31:18.372Z,17.83
2023-05-09T12:33:44.795Z,28.95
2023-05-09T12:36:11.367Z,34.63
2023-05-09T12:38:37.788Z,32.70
2023-05-09T12:41:04.189Z,26.08
2023-05-09T12:43:30.606Z,24.38
2023-05-09T12:45:56.948Z,19.73
2023-05-09T12:48:23.296Z,29.83
2023-05-09T12:50:49.728Z,141.63
2023-05-09T12:53:16.061Z,68.18
2023-05-09T12:55:42.440Z,56.15
2023-05-09T12:58:08.850Z,59.13
2023-05-09T13:00:35.250Z,34.55
2023-05-09T13:03:01.757Z,32.85
2023-05-09T13:05:28.264Z,30.60
2023-05-09T13:07:54.689Z,21.02
2023-05-09T13:10:21.097Z,15.68
2023-05-09T13:12:47.513Z,14.73
2023-05-09T13:15:14.057Z,17.70
2023-05-09T13:17:40.914Z,18.05
2023-05-09T13:20:07.391Z,21.30
2023-05-09T13:22:33.847Z,16.40
2023-05-09T13:25:00.372Z,12.95
2023-05-09T13:27:26.834Z,15.35
2023-05-09T13:29:53.152Z,9.48
2023-05-09T13:32:19.509Z,6.07
2023-05-09T13:34:45.932Z,27.67
2023-05-09T13:37:12.268Z,42.05
2023-05-09T13:39:38.606Z,24.50
2023-05-09T13:42:05.104Z,20.60
2023-05-09T13:44:31.524Z,18.90
2023-05-09T13:46:57.925Z,19.63
2023-05-09T13:49:24.394Z,10.50
2023-05-09T13:51:50.752Z,14.18
2023-05-09T13:54:17.190Z,14.88
2023-05-09T13:56:43.724Z,16.38
2023-05-09T13:59:10.185Z,18.85
2023-05-09T14:01:36.745Z,12.68
2023-05-09T14:04:03.415Z,12.15
2023-05-09T14:06:29.903Z,17.73
2023-05-09T14:08:56.394Z,12.35
2023-05-09T14:11:23.013Z,12.48
2023-05-09T14:13:49.492Z,9.95
2023-05-09T14:16:15.854Z,9.30
2023-05-09T14:18:42.347Z,11.77
2023-05-09T14:21:08.696Z,11.50
2023-05-09T14:23:35.035Z,11.32
2023-05-09T14:26:01.646Z,9.70
2023-05-09T14:28:28.178Z,9.10
2023-05-09T14:30:54.645Z,10.60
2023-05-09T14:33:21.199Z,7.25
2023-05-09T14:35:47.697Z,7.82
2023-05-09T14:38:14.124Z,10.90
2023-05-09T14:40:40.504Z,5.60
2023-05-09T14:43:06.863Z,6.05
2023-05-09T14:45:33.226Z,7.32
2023-05-09T14:47:59.661Z,6.15
2023-05-09T14:50:26.003Z,5.80
2023-05-09T14:52:52.313Z,7.60
2023-05-09T14:55:18.671Z,6.35
2023-05-09T14:57:44.987Z,6.20
2023-05-09T15:00:20.633Z,3.95
2023-05-09T15:02:48.697Z,20.73
2023-05-09T15:05:15.049Z,7.07
2023-05-09T15:07:41.352Z,13.45
2023-05-09T15:10:07.908Z,6.18
2023-05-09T15:12:34.264Z,5.82
2023-05-09T15:15:00.614Z,6.90
2023-05-09T15:17:26.970Z,4.78
2023-05-09T15:19:53.302Z,5.68
2023-05-09T15:22:19.619Z,6.72
2023-05-09T15:24:46.038Z,4.32
2023-05-09T15:27:12.376Z,4.97
2023-05-09T15:29:38.689Z,6.72
2023-05-09T15:32:05.119Z,9.15
2023-05-09T15:34:31.461Z,5.63
2023-05-09T15:36:57.796Z,5.53
2023-05-09T15:39:24.193Z,4.30
2023-05-09T15:41:50.595Z,3.28
2023-05-09T15:44:16.932Z,2.90
2023-05-09T15:46:43.515Z,4.50
2023-05-09T15:49:09.874Z,5.35
2023-05-09T15:51:36.219Z,8.30
2023-05-09T15:54:02.577Z,4.97
2023-05-09T15:56:28.903Z,3.45
2023-05-09T15:58:55.245Z,3.47
2023-05-09T16:01:21.710Z,3.30
2023-05-09T16:03:48.192Z,4.70
2023-05-09T16:06:14.860Z,4.68
2023-05-09T16:08:41.266Z,4.22
2023-05-09T16:11:07.625Z,3.97
2023-05-09T16:13:35.744Z,2.80
2023-05-09T16:16:02.603Z,4.30
2023-05-09T16:18:28.952Z,7.18
2023-05-09T16:20:55.283Z,2.78
2023-05-09T16:23:21.766Z,3.30
2023-05-09T16:25:48.157Z,4.93
2023-05-09T16:28:14.496Z,5.05
2023-05-09T16:30:40.859Z,4.32
2023-05-09T16:33:07.326Z,3.30
2023-05-09T16:35:33.760Z,2.80
2023-05-09T16:38:00.178Z,3.45
2023-05-09T16:40:26.510Z,3.67
2023-05-09T16:42:52.849Z,3.15
2023-05-09T16:45:19.319Z,4.55
2023-05-09T16:47:45.762Z,4.80
2023-05-09T16:50:12.151Z,2.65
2023-05-09T16:52:38.648Z,8.35
2023-05-09T16:55:05.002Z,5.07
2023-05-09T16:57:31.352Z,2.85
2023-05-09T16:59:57.719Z,4.43
2023-05-09T17:02:24.065Z,2.85
2023-05-09T17:04:50.486Z,3.65
2023-05-09T17:07:16.912Z,4.32
2023-05-09T17:09:43.285Z,3.78
2023-05-09T17:12:09.620Z,3.65
2023-05-09T17:14:36.069Z,3.83
2023-05-09T17:17:02.588Z,3.78
2023-05-09T17:19:28.992Z,3.47
2023-05-09T17:21:55.471Z,5.13
2023-05-09T17:24:21.773Z,6.00
2023-05-09T17:26:48.095Z,5.70
2023-05-09T17:29:14.522Z,4.43
2023-05-09T17:31:40.906Z,5.53
2023-05-09T17:34:07.233Z,4.82
2023-05-09T17:36:33.826Z,4.63
2023-05-09T17:39:00.172Z,4.57
2023-05-09T17:41:26.504Z,5.03
2023-05-09T17:43:52.868Z,5.68
2023-05-09T17:46:19.274Z,4.85
2023-05-09T17:48:45.599Z,4.90
2023-05-09T17:51:11.998Z,4.63
2023-05-09T17:53:38.318Z,3.42
2023-05-09T17:56:04.647Z,4.13
2023-05-09T17:58:31.013Z,3.78
2023-05-09T18:00:57.322Z,3.03
2023-05-09T18:03:23.725Z,6.07
2023-05-09T18:05:50.221Z,4.82
2023-05-09T18:08:16.542Z,4.05
2023-05-09T18:10:42.859Z,3.92
2023-05-09T18:13:09.335Z,3.97
2023-05-09T18:15:35.677Z,3.55
2023-05-09T18:18:02.035Z,3.35
2023-05-09T18:20:28.426Z,3.53
2023-05-09T18:22:54.750Z,4.60
2023-05-09T18:25:21.064Z,2.67
2023-05-09T18:27:47.435Z,3.22
2023-05-09T18:30:13.819Z,3.35
2023-05-09T18:32:40.296Z,5.25
2023-05-09T18:35:06.673Z,5.15
2023-05-09T18:37:33.012Z,3.33
2023-05-09T18:39:59.333Z,2.80
2023-05-09T18:42:25.715Z,3.15
2023-05-09T18:44:52.046Z,4.50
2023-05-09T18:47:18.397Z,3.85
2023-05-09T18:49:44.963Z,3.30
2023-05-09T18:52:11.274Z,4.03
2023-05-09T18:54:37.596Z,3.05
2023-05-09T18:57:03.965Z,4.38
2023-05-09T18:59:30.292Z,3.72
2023-05-09T19:01:56.638Z,3.25
2023-05-09T19:04:23.135Z,3.95
2023-05-09T19:06:49.559Z,3.30
2023-05-09T19:09:15.897Z,5.18
2023-05-09T19:11:42.278Z,5.60
2023-05-09T19:14:08.699Z,3.35
2023-05-09T19:16:35.116Z,4.55
2023-05-09T19:19:01.542Z,4.15
2023-05-09T19:21:27.868Z,3.70
2023-05-09T19:23:54.194Z,6.63
2023-05-09T19:26:20.609Z,4.57
2023-05-09T19:28:46.963Z,4.32
2023-05-09T19:31:13.317Z,6.20
2023-05-09T19:33:39.680Z,4.60
2023-05-09T19:36:06.037Z,3.63
2023-05-09T19:38:32.355Z,3.83
2023-05-09T19:40:58.716Z,3.97
2023-05-09T19:43:25.173Z,5.88
2023-05-09T19:45:51.507Z,3.70
2023-05-09T19:48:17.933Z,4.90
2023-05-09T19:50:44.250Z,4.30
2023-05-09T19:53:10.580Z,3.92
2023-05-09T19:55:36.938Z,4.13
2023-05-09T19:58:03.281Z,3.40
2023-05-09T20:00:29.633Z,3.67
2023-05-09T20:02:56.074Z,3.53
2023-05-09T20:05:22.687Z,5.18
2023-05-09T20:08:09.664Z,4.18
2023-05-09T20:10:35.967Z,3.90
2023-05-09T20:13:02.296Z,3.55
2023-05-09T20:15:28.711Z,4.63
2023-05-09T20:17:55.079Z,3.33
2023-05-09T20:20:21.415Z,4.32
2023-05-09T20:22:47.769Z,3.47
2023-05-09T20:25:14.100Z,5.78
2023-05-09T20:27:40.442Z,3.80
2023-05-09T20:30:06.833Z,3.88
2023-05-09T20:32:33.177Z,3.53
2023-05-09T20:34:59.521Z,4.32
2023-05-09T20:37:25.913Z,3.83
2023-05-09T20:39:52.294Z,4.38
2023-05-09T20:42:18.664Z,3.75
2023-05-09T20:44:45.074Z,3.50
2023-05-09T20:47:11.400Z,4.75
2023-05-09T20:49:37.712Z,3.70
2023-05-09T20:52:04.112Z,3.38
2023-05-09T20:54:30.430Z,4.70
2023-05-09T20:56:56.742Z,4.82
2023-05-09T20:59:23.094Z,4.25
2023-05-09T21:01:49.403Z,3.58
2023-05-09T21:04:15.787Z,4.15
2023-05-09T21:06:42.171Z,4.00
2023-05-09T21:09:08.477Z,3.72
2023-05-09T21:11:34.777Z,3.53
2023-05-09T21:14:01.131Z,3.25
2023-05-09T21:16:27.446Z,3.50
2023-05-09T21:18:53.773Z,5.28
2023-05-09T21:21:20.178Z,3.88
2023-05-09T21:23:46.485Z,4.45
2023-05-09T21:26:12.803Z,3.83
2023-05-09T21:28:39.160Z,4.07
2023-05-09T21:31:05.560Z,3.50
2023-05-09T21:33:31.929Z,3.75
2023-05-09T21:35:58.300Z,3.25
2023-05-09T21:38:24.621Z,3.50
2023-05-09T21:40:50.929Z,4.03
2023-05-09T21:43:17.289Z,3.80
2023-05-09T21:45:43.610Z,3.05
2023-05-09T21:48:09.964Z,4.03
2023-05-09T21:50:36.343Z,3.00
2023-05-09T21:53:02.662Z,3.33
2023-05-09T21:55:28.977Z,3.25
2023-05-09T21:57:55.351Z,4.15
2023-05-09T22:00:21.663Z,4.00
2023-05-09T22:02:48.129Z,3.78
2023-05-09T22:05:14.555Z,4.20
2023-05-09T22:07:40.889Z,3.25
2023-05-09T22:10:07.216Z,3.00
2023-05-09T22:12:33.575Z,3.50
2023-05-09T22:14:59.889Z,3.80
2023-05-09T22:17:26.227Z,3.70
2023-05-09T22:19:52.612Z,4.10
2023-05-09T22:22:18.936Z,3.78
2023-05-09T22:24:45.240Z,4.03
2023-05-09T22:27:11.603Z,3.13
2023-05-09T22:29:37.977Z,3.88
2023-05-09T22:32:04.506Z,3.38
2023-05-09T22:34:30.975Z,3.47
2023-05-09T22:36:57.297Z,4.07
2023-05-09T22:39:25.006Z,2.92
2023-05-09T22:41:51.367Z,2.80
2023-05-09T22:44:17.681Z,3.22
2023-05-09T22:46:44.016Z,3.55
2023-05-09T22:49:10.388Z,3.05
2023-05-09T22:51:36.712Z,3.28
2023-05-09T22:54:03.115Z,3.33
2023-05-09T22:56:29.491Z,4.25
2023-05-09T22:58:55.847Z,3.58
2023-05-09T23:01:22.218Z,3.30
2023-05-09T23:03:48.677Z,3.63
2023-05-09T23:06:15.005Z,3.20
2023-05-09T23:08:41.395Z,3.42
2023-05-09T23:11:07.816Z,3.10
2023-05-09T23:13:34.282Z,3.05
2023-05-09T23:16:00.762Z,3.28
2023-05-09T23:18:27.317Z,2.78
2023-05-09T23:20:53.650Z,3.28
2023-05-09T23:23:19.966Z,3.08
2023-05-09T23:25:46.339Z,3.17
2023-05-09T23:28:12.671Z,3.55
2023-05-09T23:30:39.003Z,4.43
2023-05-09T23:33:05.389Z,3.70
2023-05-09T23:35:31.735Z,3.20
2023-05-09T23:37:58.054Z,3.67
2023-05-09T23:40:24.415Z,3.80
2023-05-09T23:42:50.734Z,3.40
2023-05-09T23:45:17.069Z,3.25
2023-05-09T23:47:43.480Z,3.17
2023-05-09T23:50:09.810Z,3.80
2023-05-09T23:52:36.143Z,3.47
2023-05-09T23:55:02.544Z,3.08
2023-05-09T23:57:28.875Z,3.47
2023-05-09T23:59:55.192Z,4.18
